createdAt,value
2022-11-05T00:02:05.671Z,4.80
2022-11-05T00:07:03.812Z,4.45
2022-11-05T00:12:01.812Z,3.60
2022-11-05T00:16:49.857Z,3.22
2022-11-05T00:21:47.860Z,3.28
2022-11-05T00:26:34.773Z,8.07
2022-11-05T00:31:20.629Z,6.88
2022-11-05T00:36:11.305Z,3.38
2022-11-05T00:40:57.311Z,3.60
2022-11-05T00:45:43.031Z,4.00
2022-11-05T00:50:28.988Z,4.45
2022-11-05T00:55:17.446Z,6.05
2022-11-05T01:00:03.338Z,5.47
2022-11-05T01:04:48.993Z,4.25
2022-11-05T01:09:34.631Z,4.05
2022-11-05T01:14:22.887Z,4.28
2022-11-05T01:19:10.352Z,6.25
2022-11-05T01:23:56.490Z,6.53
2022-11-05T01:28:42.539Z,6.05
2022-11-05T01:33:30.943Z,9.25
2022-11-05T01:38:16.917Z,5.13
2022-11-05T01:43:02.632Z,7.88
2022-11-05T01:48:06.679Z,6.68
2022-11-05T01:53:00.513Z,5.85
2022-11-05T01:57:46.283Z,5.35
2022-11-05T02:02:34.231Z,7.90
2022-11-05T02:07:20.692Z,7.40
2022-11-05T02:12:10.200Z,6.00
2022-11-05T02:17:04.308Z,6.72
2022-11-05T02:22:18.675Z,5.80
2022-11-05T02:27:51.271Z,5.22
2022-11-05T02:37:42.360Z,3.70
2022-11-05T02:42:38.512Z,3.58
2022-11-05T02:47:28.867Z,6.28
2022-11-05T02:52:22.151Z,5.97
2022-11-05T02:57:07.818Z,5.45
2022-11-05T03:01:55.063Z,4.95
2022-11-05T03:06:56.948Z,4.45
2022-11-05T03:11:54.203Z,4.75
2022-11-05T03:16:43.429Z,3.78
2022-11-05T03:21:39.373Z,4.40
2022-11-05T03:26:30.104Z,2.40
2022-11-05T03:31:20.137Z,2.15
2022-11-05T03:36:08.812Z,2.30
2022-11-05T03:40:57.944Z,2.83
2022-11-05T03:45:49.665Z,2.20
2022-11-05T03:50:41.927Z,2.13
2022-11-05T03:55:31.867Z,2.92
2022-11-05T04:00:17.463Z,2.60
2022-11-05T04:05:02.478Z,2.72
2022-11-05T04:10:02.703Z,2.60
2022-11-05T04:14:47.967Z,2.92
2022-11-05T04:19:45.292Z,2.90
2022-11-05T04:24:30.552Z,2.75
2022-11-05T04:29:30.598Z,2.55
2022-11-05T04:34:16.414Z,2.90
2022-11-05T04:39:01.426Z,2.47
2022-11-05T04:43:47.255Z,2.78
2022-11-05T04:48:34.870Z,2.78
2022-11-05T04:53:20.129Z,2.83
2022-11-05T04:58:05.110Z,2.50
2022-11-05T05:02:51.792Z,2.80
2022-11-05T05:07:39.476Z,2.80
2022-11-05T05:12:24.934Z,3.20
2022-11-05T05:17:09.938Z,2.92
2022-11-05T05:21:55.364Z,3.10
2022-11-05T05:26:44.727Z,3.10
2022-11-05T05:31:30.028Z,3.60
2022-11-05T05:36:15.037Z,3.63
2022-11-05T05:41:01.988Z,3.33
2022-11-05T05:45:49.650Z,3.55
2022-11-05T05:50:34.924Z,2.67
2022-11-05T05:55:19.958Z,3.08
2022-11-05T06:00:05.266Z,3.53
2022-11-05T06:04:52.869Z,3.65
2022-11-05T06:09:38.149Z,4.75
2022-11-05T06:14:23.146Z,4.35
2022-11-05T06:19:08.644Z,5.30
2022-11-05T06:23:56.379Z,5.68
2022-11-05T06:28:42.292Z,4.90
2022-11-05T06:33:27.587Z,4.03
2022-11-05T06:38:12.839Z,4.43
2022-11-05T06:43:00.490Z,5.97
2022-11-05T06:47:45.766Z,4.90
2022-11-05T06:52:31.604Z,9.43
2022-11-05T06:57:17.646Z,12.95
2022-11-05T07:02:05.355Z,14.20
2022-11-05T07:06:50.991Z,15.25
2022-11-05T07:11:36.301Z,19.17
2022-11-05T07:16:21.276Z,12.73
2022-11-05T07:21:09.363Z,12.73
2022-11-05T07:25:54.334Z,9.45
2022-11-05T07:30:40.060Z,7.10
2022-11-05T07:35:25.571Z,5.72
2022-11-05T07:40:14.386Z,4.97
2022-11-05T07:44:59.358Z,4.47
2022-11-05T07:49:44.612Z,3.92
2022-11-05T07:54:29.620Z,3.28
2022-11-05T07:59:17.492Z,2.92
2022-11-05T08:04:02.498Z,4.53
2022-11-05T08:08:47.799Z,7.78
2022-11-05T08:13:32.830Z,4.50
2022-11-05T08:18:20.991Z,3.80
2022-11-05T08:23:06.025Z,3.47
2022-11-05T08:27:51.350Z,3.75
2022-11-05T08:32:36.646Z,3.47
2022-11-05T08:37:25.109Z,4.95
2022-11-05T08:42:10.395Z,8.70
2022-11-05T08:46:55.619Z,6.60
2022-11-05T08:51:40.895Z,3.97
2022-11-05T08:56:28.587Z,6.22
2022-11-05T09:01:13.929Z,9.55
2022-11-05T09:05:58.988Z,3.47
2022-11-05T09:10:45.469Z,3.10
2022-11-05T09:15:35.607Z,3.15
2022-11-05T09:20:21.147Z,3.55
2022-11-05T09:25:06.552Z,3.40
2022-11-05T09:29:51.840Z,3.75
2022-11-05T09:34:39.486Z,3.40
2022-11-05T09:39:24.771Z,3.83
2022-11-05T09:44:17.018Z,3.40
2022-11-05T09:49:08.860Z,3.58
2022-11-05T09:53:56.755Z,3.65
2022-11-05T09:58:47.096Z,2.88
2022-11-05T10:03:33.659Z,3.28
2022-11-05T10:08:24.246Z,2.92
2022-11-05T10:13:22.314Z,3.03
2022-11-05T10:18:15.491Z,3.05
2022-11-05T10:23:04.653Z,3.05
2022-11-05T10:27:54.811Z,2.55
2022-11-05T10:32:44.123Z,2.53
2022-11-05T10:37:30.448Z,2.53
2022-11-05T10:42:37.887Z,3.70
2022-11-05T10:47:42.964Z,2.50
2022-11-05T10:52:36.240Z,3.67
2022-11-05T10:57:33.660Z,2.45
2022-11-05T11:02:24.807Z,3.15
2022-11-05T11:07:23.694Z,3.00
2022-11-05T11:12:18.451Z,2.67
2022-11-05T11:17:26.956Z,2.65
2022-11-05T11:22:24.053Z,2.83
2022-11-05T11:27:15.718Z,2.35
2022-11-05T11:36:48.996Z,2.95
2022-11-05T11:41:38.602Z,2.92
2022-11-05T11:46:26.328Z,13.20
2022-11-05T11:51:32.791Z,3.58
2022-11-05T11:56:20.620Z,4.13
2022-11-05T12:01:24.554Z,3.17
2022-11-05T12:06:21.340Z,3.55
2022-11-05T12:11:13.225Z,2.50
2022-11-05T12:16:02.054Z,3.28
2022-11-05T12:21:09.003Z,2.85
2022-11-05T12:26:07.811Z,3.03
2022-11-05T12:30:59.023Z,2.60
2022-11-05T12:35:57.802Z,2.90
2022-11-05T12:40:54.346Z,2.97
2022-11-05T12:45:50.155Z,3.20
2022-11-05T12:50:45.304Z,2.97
2022-11-05T12:55:36.183Z,3.92
2022-11-05T13:00:23.754Z,3.33
2022-11-05T13:05:18.395Z,6.03
2022-11-05T13:10:09.130Z,2.70
2022-11-05T13:14:59.035Z,2.13
2022-11-05T13:19:49.269Z,2.05
2022-11-05T13:24:40.820Z,5.35
2022-11-05T13:29:30.587Z,1.33
2022-11-05T13:34:16.361Z,2.95
2022-11-05T13:39:09.390Z,1.92
2022-11-05T13:44:23.066Z,2.15
2022-11-05T13:49:35.983Z,2.20
2022-11-05T13:55:05.008Z,2.60
2022-11-05T14:00:11.154Z,2.92
2022-11-05T14:05:01.543Z,3.75
2022-11-05T14:09:48.662Z,2.95
2022-11-05T14:14:48.197Z,2.92
2022-11-05T14:19:39.184Z,2.55
2022-11-05T14:24:31.453Z,1.77
2022-11-05T14:29:40.279Z,2.15
2022-11-05T14:34:41.756Z,1.85
2022-11-05T14:39:31.894Z,1.90
2022-11-05T14:44:17.296Z,1.90
2022-11-05T14:49:09.460Z,2.10
2022-11-05T14:54:04.028Z,2.30
2022-11-05T14:58:51.951Z,1.85
2022-11-05T15:04:03.343Z,1.83
2022-11-05T15:09:22.227Z,2.05
2022-11-05T15:14:19.599Z,2.17
2022-11-05T15:19:06.353Z,2.08
2022-11-05T15:23:56.551Z,2.08
2022-11-05T15:28:45.166Z,1.92
2022-11-05T15:33:34.476Z,2.05
2022-11-05T15:38:34.212Z,1.98
2022-11-05T15:43:22.343Z,2.33
2022-11-05T15:48:16.427Z,2.50
2022-11-05T15:58:22.916Z,3.05
2022-11-05T16:03:11.521Z,3.42
2022-11-05T16:07:57.304Z,5.80
2022-11-05T16:12:44.955Z,3.90
2022-11-05T16:17:33.839Z,3.30
2022-11-05T16:22:19.058Z,3.25
2022-11-05T16:27:05.923Z,3.22
2022-11-05T16:31:56.822Z,2.70
2022-11-05T16:36:42.105Z,2.53
2022-11-05T16:41:28.587Z,3.00
2022-11-05T16:46:15.674Z,3.30
2022-11-05T16:51:03.425Z,3.55
2022-11-05T16:55:49.538Z,5.30
2022-11-05T17:00:34.562Z,7.57
2022-11-05T17:05:24.197Z,8.40
2022-11-05T17:10:11.948Z,10.75
2022-11-05T17:14:57.206Z,12.80
2022-11-05T17:19:43.050Z,40.55
2022-11-05T17:24:28.351Z,39.90
2022-11-05T17:29:15.960Z,31.48
2022-11-05T17:34:01.895Z,27.15
2022-11-05T17:38:46.891Z,28.52
2022-11-05T17:43:32.156Z,26.77
2022-11-05T17:48:20.554Z,23.73
2022-11-05T17:53:05.817Z,30.27
2022-11-05T17:57:52.520Z,29.58
2022-11-05T18:02:37.651Z,33.20
2022-11-05T18:07:25.679Z,36.10
2022-11-05T18:12:11.039Z,34.40
2022-11-05T18:17:00.287Z,30.50
2022-11-05T18:21:45.583Z,30.80
2022-11-05T18:26:34.790Z,29.27
2022-11-05T18:31:21.993Z,26.10
2022-11-05T18:36:07.681Z,27.45
2022-11-05T18:40:52.695Z,12.52
2022-11-05T18:45:40.596Z,19.60
2022-11-05T18:50:25.587Z,21.30
2022-11-05T18:55:12.075Z,24.83
2022-11-05T18:59:57.119Z,27.65
2022-11-05T19:05:06.768Z,22.55
2022-11-05T19:09:51.331Z,16.80
2022-11-05T19:14:36.905Z,17.30
2022-11-05T19:19:23.341Z,15.10
2022-11-05T19:24:16.685Z,14.55
2022-11-05T19:29:03.780Z,12.02
2022-11-05T19:33:50.325Z,12.65
2022-11-05T19:38:35.988Z,20.45
2022-11-05T19:43:23.627Z,16.98
2022-11-05T19:48:13.496Z,23.30
2022-11-05T19:53:03.067Z,25.70
2022-11-05T19:57:48.359Z,37.75
2022-11-05T20:02:36.076Z,29.67
2022-11-05T20:07:21.411Z,26.48
2022-11-05T20:12:06.721Z,19.25
2022-11-05T20:16:52.451Z,25.80
2022-11-05T20:21:40.528Z,14.50
2022-11-05T20:26:25.912Z,16.27
2022-11-05T20:31:11.760Z,17.60
2022-11-05T20:35:57.208Z,16.90
2022-11-05T20:40:44.852Z,19.70
2022-11-05T20:45:30.520Z,15.23
2022-11-05T20:50:15.858Z,27.52
2022-11-05T20:55:01.287Z,24.42
2022-11-05T20:59:49.179Z,17.88
2022-11-05T21:04:37.237Z,15.40
2022-11-05T21:09:22.498Z,37.63
2022-11-05T21:14:07.466Z,27.42
2022-11-05T21:18:55.384Z,19.70
2022-11-05T21:23:41.843Z,14.13
2022-11-05T21:28:27.124Z,27.98
2022-11-05T21:33:12.295Z,19.38
2022-11-05T21:38:00.575Z,16.35
2022-11-05T21:42:45.844Z,12.55
2022-11-05T21:47:31.548Z,7.38
2022-11-05T21:52:29.171Z,7.93
2022-11-05T21:57:33.444Z,9.88
2022-11-05T22:02:20.792Z,14.52
2022-11-05T22:07:06.544Z,13.90
2022-11-05T22:11:51.941Z,16.95
2022-11-05T22:16:39.787Z,10.88
2022-11-05T22:21:24.794Z,9.75
2022-11-05T22:26:10.054Z,14.00
2022-11-05T22:30:55.045Z,9.30
2022-11-05T22:35:44.751Z,9.10
2022-11-05T22:40:29.921Z,5.45
2022-11-05T22:45:15.179Z,10.90
2022-11-05T22:50:00.163Z,14.25
2022-11-05T22:54:48.037Z,14.43
2022-11-05T22:59:33.012Z,20.83
2022-11-05T23:04:18.617Z,22.45
2022-11-05T23:09:17.194Z,18.75
2022-11-05T23:14:05.504Z,22.13
2022-11-05T23:19:05.763Z,20.08
2022-11-05T23:24:03.764Z,17.23
2022-11-05T23:28:48.738Z,12.45
2022-11-05T23:33:39.553Z,10.43
2022-11-05T23:38:38.200Z,16.80
2022-11-05T23:43:36.309Z,16.02
2022-11-05T23:48:26.489Z,14.63
2022-11-05T23:53:15.175Z,24.55
2022-11-05T23:58:01.099Z,16.42
